This is the latest recevied weather packets stored in our database for station/object KB2AHZ. If no packets are shown the sender has not sent any weather packets the latest 10 day(s).
| Time | Temp. | Humidity | Pressure | Rain* | Wind** | Luminosity | Snow |
|---|---|---|---|---|---|---|---|
| 1777909616 | 21.67° C | 39% | 1016.5 hPa | 0 mm | - | 888 W/m² | - |
| 1777909313 | 22.78° C | 42% | 1016.4 hPa | 0 mm | - | 882 W/m² | - |
| 1777909011 | 21.67° C | 41% | 1016.6 hPa | 0 mm | - | 871 W/m² | - |
| 1777908708 | 21.67° C | 42% | 1016.4 hPa | 0 mm | - | 862 W/m² | - |
| 1777908405 | 21.67° C | 40% | 1016.7 hPa | 0 mm | - | 849 W/m² | - |
| 1777908102 | 21.67° C | 41% | 1016.7 hPa | 0 mm | - | 835 W/m² | - |
| 1777907798 | 21.67° C | 40% | 1016.7 hPa | 0 mm | - | 825 W/m² | - |
| 1777907493 | 21.11° C | 40% | 1016.9 hPa | 0 mm | - | 821 W/m² | - |
| 1777907190 | 21.67° C | 38% | 1016.8 hPa | 0 mm | - | 786 W/m² | - |
| 1777906887 | 21.67° C | 48% | 1016.7 hPa | 0 mm | - | 799 W/m² | - |
| 1777906584 | 21.11° C | 41% | 1016.8 hPa | 0 mm | - | 784 W/m² | - |
| 1777906280 | 21.11° C | 43% | 1016.8 hPa | 0 mm | - | 774 W/m² | - |
| 1777905977 | 21.11° C | 46% | 1017 hPa | 0 mm | - | 762 W/m² | - |
| 1777905673 | 20.56° C | 45% | 1016.9 hPa | 0 mm | - | 748 W/m² | - |
| 1777905370 | 20° C | 47% | 1016.9 hPa | 0 mm | - | 738 W/m² | - |
| 1777905068 | 20° C | 53% | 1016.9 hPa | 0 mm | - | 726 W/m² | - |
| 1777904765 | 20° C | 51% | 1017 hPa | 0 mm | - | 715 W/m² | - |
| 1777904462 | 18.89° C | 51% | 1016.9 hPa | 0 mm | - | 655 W/m² | - |
| 1777904159 | 19.44° C | 56% | 1017.2 hPa | 0 mm | - | 616 W/m² | - |
| 1777903856 | 19.44° C | 56% | 1017 hPa | 0 mm | - | 645 W/m² | - |
| 1777903552 | 18.33° C | 58% | 1017.1 hPa | 0 mm | - | 578 W/m² | - |
| 1777903248 | 17.78° C | 58% | 1016.9 hPa | 0 mm | - | 647 W/m² | - |
| 1777902945 | 17.78° C | 58% | 1017.2 hPa | 0 mm | - | 530 W/m² | - |
| 1777902642 | 17.22° C | 60% | 1017 hPa | 0 mm | - | 587 W/m² | - |
| 1777902339 | 17.78° C | 59% | 1017.1 hPa | 0 mm | - | 612 W/m² | - |
* Rain latest hour (hover to see other rain measurements)
** Current wind speed in m/s (hover to see current wind gust speed)